Creston, IA

8:41 AM CDT on July 29, 2016 (GMT -0500)
Creston Municipal

Weather History for KCSQ - November, 2013

Change the Weather History Date:

Saturday, November 2, 2013

  Actual Average Record
Temperature  
Mean Temperature 43 °F -  
Max Temperature 51 °F 52 °F 77 °F (2005)
Min Temperature 35 °F 36 °F 9 °F (1991)
Degree Days  
Heating Degree Days 22    
Moisture  
Dew Point 36 °F    
Average Humidity 76    
Maximum Humidity 100    
Minimum Humidity 50    
Precipitation  
Precipitation 0.00 in - - ()
Sea Level Pressure  
Sea Level Pressure 30.08 in    
Wind  
Wind Speed 11 mph (WNW)    
Max Wind Speed 18 mph    
Max Gust Speed 25 mph    
Visibility 10 miles    
Events      
Averages and records for this station are not official NWS values.
T = Trace of Precipitation, MM = Missing Value Source: NWS Daily Summary

Daily Weather History Graph

Daily Weather History Graph

Search for Another Location

Airport or City:

Trip Planner

Search our weather history database for the weather conditions in past years. The results will help you decide how hot, cold, wet, or windy it might be!

Date:

Astronomy

Nov. 02, 2013 Rise Set
Actual Time 7:49 AM CDT 6:11 PM CDT
Civil Twilight 7:21 AM CDT 6:40 PM CDT
Nautical Twilight 6:48 AM CDT 7:12 PM CDT
Astronomical Twilight 6:16 AM CDT 7:44 PM CDT
Moon 6:47 AM CDT (11/2) 5:43 PM CDT (11/2)
Length of Visible Light 11h 19m
Length of Day
10h 21m
Waning Crescent, 1% of the Moon is Illuminated
Nov 2
Waning Crescent
Nov 3
New
Nov 9
First Quarter
Nov 17
Full
Nov 25
Last Quarter

Hourly Weather History & Observations

Time (CDT) Temp. Windchill Dew Point Humidity Pressure Visibility Wind Dir Wind Speed Gust Speed Precip Events Conditions
12:15 AM 41.0 °F 33.9 °F 39.2 °F 93% 29.92 in 10.0 mi WNW 12.7 mph - N/A   Overcast
12:35 AM 41.0 °F 33.9 °F 39.2 °F 93% 29.92 in 10.0 mi NW 12.7 mph - N/A   Overcast
12:55 AM 42.8 °F 36.6 °F 41.0 °F 93% 29.92 in 10.0 mi NW 11.5 mph - N/A   Overcast
1:15 AM 42.8 °F 36.2 °F 41.0 °F 93% 29.93 in 10.0 mi NW 12.7 mph - N/A   Overcast
1:35 AM 42.8 °F 36.2 °F 41.0 °F 93% 29.94 in 10.0 mi NW 12.7 mph - N/A   Overcast
1:55 AM 42.8 °F 36.2 °F 41.0 °F 93% 29.94 in 10.0 mi NW 12.7 mph - N/A   Overcast
2:15 AM 42.8 °F 36.6 °F 41.0 °F 93% 29.95 in 10.0 mi NW 11.5 mph - N/A   Overcast
2:35 AM 42.8 °F 36.6 °F 41.0 °F 93% 29.96 in 10.0 mi NW 11.5 mph - N/A   Overcast
2:55 AM 44.6 °F 38.1 °F 41.0 °F 87% 29.96 in 10.0 mi NW 13.8 mph - N/A   Overcast
3:15 AM 44.6 °F 37.8 °F 39.2 °F 81% 29.96 in - NNW 15.0 mph - N/A   Overcast
3:35 AM 42.8 °F 36.6 °F 39.2 °F 87% 29.97 in 10.0 mi NNW 11.5 mph - N/A   Overcast
3:55 AM 42.8 °F 36.6 °F 39.2 °F 87% 29.97 in 10.0 mi NW 11.5 mph - N/A   Overcast
4:15 AM 42.8 °F 36.6 °F 41.0 °F 93% 29.98 in 10.0 mi NW 11.5 mph 18.4 mph N/A   Overcast
4:35 AM 42.8 °F 35.8 °F 39.2 °F 87% 29.99 in 10.0 mi NW 13.8 mph - N/A   Overcast
4:55 AM 42.8 °F 35.8 °F 39.2 °F 87% 30.00 in 10.0 mi NW 13.8 mph - N/A   Overcast
5:15 AM 42.8 °F 36.6 °F 39.2 °F 87% 30.01 in 10.0 mi NW 11.5 mph - N/A   Overcast
5:35 AM 42.8 °F 37.5 °F 41.0 °F 93% 30.02 in 10.0 mi WNW 9.2 mph - N/A   Overcast
5:55 AM 42.8 °F 36.2 °F 41.0 °F 93% 30.03 in 10.0 mi NW 12.7 mph - N/A   Overcast
6:15 AM 42.8 °F 36.6 °F 39.2 °F 87% 30.03 in 10.0 mi NW 11.5 mph - N/A   Overcast
6:35 AM 41.0 °F 34.3 °F 39.2 °F 93% 30.05 in 10.0 mi NW 11.5 mph - N/A   Overcast
6:55 AM 41.0 °F 34.7 °F 39.2 °F 93% 30.05 in 10.0 mi NW 10.4 mph - N/A   Overcast
7:15 AM 39.2 °F 33.6 °F 37.4 °F 93% 30.06 in 10.0 mi NW 8.1 mph - N/A   Mostly Cloudy
7:35 AM 39.2 °F 33.6 °F 37.4 °F 93% 30.06 in 9.0 mi NW 8.1 mph - N/A   Overcast
7:55 AM 37.4 °F 31.4 °F 37.4 °F 100% 30.07 in 7.0 mi WNW 8.1 mph - N/A   Scattered Clouds
8:15 AM 37.4 °F 30.8 °F 37.4 °F 100% 30.08 in 6.0 mi NW 9.2 mph - N/A   Clear
8:35 AM 39.2 °F 30.8 °F 37.4 °F 93% 30.09 in 9.0 mi NW 15.0 mph - N/A   Scattered Clouds
8:55 AM 41.0 °F 33.5 °F 37.4 °F 87% 30.10 in 10.0 mi NW 13.8 mph - N/A   Mostly Cloudy
9:15 AM 41.0 °F 33.1 °F 37.4 °F 87% 30.11 in 9.0 mi NW 15.0 mph 20.7 mph N/A   Clear
9:35 AM 41.0 °F 33.5 °F 37.4 °F 87% 30.12 in 10.0 mi NW 13.8 mph - N/A   Clear
9:55 AM 41.0 °F 33.1 °F 37.4 °F 87% 30.12 in 10.0 mi NW 15.0 mph - N/A   Clear
10:15 AM 42.8 °F 35.8 °F 37.4 °F 81% 30.12 in 10.0 mi NW 13.8 mph - N/A   Clear
10:35 AM 42.8 °F 35.8 °F 37.4 °F 81% 30.13 in 10.0 mi NW 13.8 mph - N/A   Partly Cloudy
10:55 AM 44.6 °F 37.4 °F 39.2 °F 81% 30.14 in 10.0 mi NW 16.1 mph - N/A   Scattered Clouds
12:15 PM 48.2 °F - 37.4 °F 66% 30.15 in - NW 12.7 mph 21.9 mph N/A   Partly Cloudy
12:35 PM 48.2 °F - 35.6 °F 62% 30.15 in 10.0 mi NW 18.4 mph - N/A   Partly Cloudy
12:55 PM 48.2 °F - 35.6 °F 62% 30.15 in 10.0 mi NW 16.1 mph - N/A   Clear
1:15 PM 48.2 °F - 33.8 °F 58% 30.14 in 10.0 mi NW 15.0 mph - N/A   Clear
1:35 PM 50.0 °F - 33.8 °F 54% 30.14 in 10.0 mi NW 15.0 mph - N/A   Clear
1:55 PM 50.0 °F - 33.8 °F 54% 30.14 in 10.0 mi NNW 16.1 mph - N/A   Clear
2:15 PM 50.0 °F - 33.8 °F 54% 30.13 in 10.0 mi NW 15.0 mph - N/A   Partly Cloudy
2:35 PM 50.0 °F - 33.8 °F 54% 30.14 in 10.0 mi NW 13.8 mph 19.6 mph N/A   Partly Cloudy
2:55 PM 51.8 °F - 33.8 °F 50% 30.13 in 10.0 mi WNW 15.0 mph - N/A   Partly Cloudy
3:15 PM 51.8 °F - 33.8 °F 50% 30.13 in 10.0 mi NW 12.7 mph 19.6 mph N/A   Clear
3:35 PM 51.8 °F - 33.8 °F 50% 30.13 in 10.0 mi WNW 15.0 mph - N/A   Partly Cloudy
3:55 PM 51.8 °F - 33.8 °F 50% 30.13 in 10.0 mi NNW 15.0 mph 25.3 mph N/A   Partly Cloudy
4:15 PM 51.8 °F - 33.8 °F 50% 30.13 in 10.0 mi NW 11.5 mph - N/A   Partly Cloudy
4:35 PM 51.8 °F - 33.8 °F 50% 30.13 in 10.0 mi WNW 10.4 mph 19.6 mph N/A   Partly Cloudy
4:55 PM 51.8 °F - 33.8 °F 50% 30.13 in 10.0 mi NW 10.4 mph - N/A   Clear
5:15 PM 51.8 °F - 33.8 °F 50% 30.13 in 10.0 mi NW 10.4 mph - N/A   Clear
5:35 PM 50.0 °F - 33.8 °F 54% 30.13 in 10.0 mi NW 6.9 mph - N/A   Clear
5:55 PM 48.2 °F - 33.8 °F 58% 30.13 in 10.0 mi WNW 4.6 mph - N/A   Clear
6:15 PM 48.2 °F - 33.8 °F 58% 30.13 in 10.0 mi WNW 3.5 mph - N/A   Clear
6:35 PM 46.4 °F - 33.8 °F 62% 30.13 in 10.0 mi Calm Calm - N/A   Clear
6:55 PM 46.4 °F - 33.8 °F 62% 30.14 in 10.0 mi Calm Calm - N/A   Clear
7:15 PM 46.4 °F 44.3 °F 32.0 °F 57% 30.14 in 10.0 mi West 4.6 mph - N/A   Clear
7:35 PM 41.0 °F 39.0 °F 32.0 °F 70% 30.14 in 10.0 mi South 3.5 mph - N/A   Clear
7:55 PM 44.6 °F 42.2 °F 32.0 °F 61% 30.14 in 10.0 mi SW 4.6 mph - N/A   Clear
8:15 PM 41.0 °F 38.0 °F 32.0 °F 70% 30.14 in 10.0 mi South 4.6 mph - N/A   Clear
8:35 PM 39.2 °F 35.0 °F 32.0 °F 75% 30.14 in 10.0 mi SSW 5.8 mph - N/A   Clear
8:55 PM 41.0 °F 38.0 °F 32.0 °F 70% 30.13 in 10.0 mi South 4.6 mph - N/A   Clear
9:15 PM 39.2 °F 35.9 °F 32.0 °F 75% 30.13 in 10.0 mi South 4.6 mph - N/A   Clear
9:35 PM 35.6 °F 31.7 °F 32.0 °F 87% 30.13 in 9.0 mi SSE 4.6 mph - N/A   Clear
9:55 PM 35.6 °F 30.7 °F 32.0 °F 87% 30.13 in 10.0 mi SSE 5.8 mph - N/A   Clear
10:15 PM 35.6 °F 32.8 °F 32.0 °F 87% 30.13 in 10.0 mi SSE 3.5 mph - N/A   Clear
10:35 PM 37.4 °F 32.1 °F 32.0 °F 81% 30.13 in 10.0 mi South 6.9 mph - N/A   Clear
10:55 PM 37.4 °F 32.1 °F 32.0 °F 81% 30.13 in 10.0 mi South 6.9 mph - N/A   Clear
11:15 PM 39.2 °F 33.6 °F 32.0 °F 75% 30.13 in 10.0 mi South 8.1 mph - N/A   Clear
11:35 PM 37.4 °F 31.4 °F 32.0 °F 81% 30.13 in 10.0 mi South 8.1 mph - N/A   Clear
11:55 PM 37.4 °F 30.3 °F 32.0 °F 81% 30.13 in 10.0 mi South 10.4 mph - N/A   Clear